sensor_id;sensor_type;location;lat;lon;timestamp;pressure;altitude;pressure_sealevel;temperature;humidity
46347;BME280;32057;47.830;19.046;2024-03-08T00:01:39;100596.72;;;5.26;100.00
46347;BME280;32057;47.830;19.046;2024-03-08T00:04:04;100589.03;;;5.27;100.00
46347;BME280;32057;47.830;19.046;2024-03-08T00:06:31;100590.13;;;5.32;100.00
46347;BME280;32057;47.830;19.046;2024-03-08T00:08:57;100597.25;;;5.38;100.00
46347;BME280;32057;47.830;19.046;2024-03-08T00:11:22;100593.25;;;5.45;100.00
46347;BME280;32057;47.830;19.046;2024-03-08T00:13:51;100584.72;;;5.46;100.00
46347;BME280;32057;47.830;19.046;2024-03-08T00:16:17;100593.84;;;5.39;100.00
46347;BME280;32057;47.830;19.046;2024-03-08T00:18:44;100586.81;;;5.17;100.00
46347;BME280;32057;47.830;19.046;2024-03-08T00:21:09;100582.88;;;5.06;100.00
46347;BME280;32057;47.830;19.046;2024-03-08T00:23:35;100578.13;;;4.95;100.00
46347;BME280;32057;47.830;19.046;2024-03-08T00:26:00;100578.78;;;4.91;100.00
46347;BME280;32057;47.830;19.046;2024-03-08T00:28:26;100583.13;;;4.74;100.00
46347;BME280;32057;47.830;19.046;2024-03-08T00:30:52;100585.63;;;4.73;100.00
46347;BME280;32057;47.830;19.046;2024-03-08T00:33:17;100579.22;;;4.65;100.00
46347;BME280;32057;47.830;19.046;2024-03-08T00:35:43;100581.13;;;4.69;100.00
46347;BME280;32057;47.830;19.046;2024-03-08T00:38:08;100584.66;;;4.71;100.00
46347;BME280;32057;47.830;19.046;2024-03-08T00:40:33;100576.56;;;4.63;100.00
46347;BME280;32057;47.830;19.046;2024-03-08T00:42:59;100580.72;;;4.59;100.00
46347;BME280;32057;47.830;19.046;2024-03-08T00:45:24;100574.59;;;4.57;100.00
46347;BME280;32057;47.830;19.046;2024-03-08T00:47:49;100572.75;;;4.55;100.00
46347;BME280;32057;47.830;19.046;2024-03-08T00:50:15;100571.28;;;4.60;100.00
46347;BME280;32057;47.830;19.046;2024-03-08T00:52:40;100569.78;;;4.65;100.00
46347;BME280;32057;47.830;19.046;2024-03-08T00:55:06;100568.03;;;4.64;100.00
46347;BME280;32057;47.830;19.046;2024-03-08T00:57:33;100567.84;;;4.59;100.00
46347;BME280;32057;47.830;19.046;2024-03-08T00:59:58;100571.19;;;4.58;100.00
46347;BME280;32057;47.830;19.046;2024-03-08T01:02:24;100571.13;;;4.57;100.00
46347;BME280;32057;47.830;19.046;2024-03-08T01:04:49;100578.94;;;4.58;100.00
46347;BME280;32057;47.830;19.046;2024-03-08T01:07:15;100569.28;;;4.54;100.00
46347;BME280;32057;47.830;19.046;2024-03-08T01:09:40;100577.84;;;4.53;100.00
46347;BME280;32057;47.830;19.046;2024-03-08T01:12:06;100573.47;;;4.52;100.00
46347;BME280;32057;47.830;19.046;2024-03-08T01:14:32;100573.66;;;4.55;100.00
46347;BME280;32057;47.830;19.046;2024-03-08T01:16:58;100572.69;;;4.53;100.00
46347;BME280;32057;47.830;19.046;2024-03-08T01:19:24;100572.81;;;4.56;100.00
46347;BME280;32057;47.830;19.046;2024-03-08T01:21:49;100569.75;;;4.64;100.00
46347;BME280;32057;47.830;19.046;2024-03-08T01:24:15;100567.38;;;4.68;100.00
46347;BME280;32057;47.830;19.046;2024-03-08T01:26:40;100572.59;;;4.70;100.00
46347;BME280;32057;47.830;19.046;2024-03-08T01:29:05;100569.22;;;4.53;100.00
46347;BME280;32057;47.830;19.046;2024-03-08T01:31:31;100569.66;;;4.62;100.00
46347;BME280;32057;47.830;19.046;2024-03-08T01:33:57;100573.78;;;4.58;100.00
46347;BME280;32057;47.830;19.046;2024-03-08T01:36:22;100574.31;;;4.51;100.00
46347;BME280;32057;47.830;19.046;2024-03-08T01:38:48;100569.28;;;4.54;100.00
46347;BME280;32057;47.830;19.046;2024-03-08T01:41:13;100569.38;;;4.56;100.00
46347;BME280;32057;47.830;19.046;2024-03-08T01:43:41;100565.25;;;4.59;100.00
46347;BME280;32057;47.830;19.046;2024-03-08T01:46:08;100573.78;;;4.58;100.00
46347;BME280;32057;47.830;19.046;2024-03-08T01:48:34;100570.41;;;4.59;100.00
46347;BME280;32057;47.830;19.046;2024-03-08T01:51:00;100565.09;;;4.56;100.00
46347;BME280;32057;47.830;19.046;2024-03-08T01:53:26;100568.41;;;4.54;100.00
46347;BME280;32057;47.830;19.046;2024-03-08T01:55:54;100570.91;;;4.52;100.00
46347;BME280;32057;47.830;19.046;2024-03-08T01:58:21;100571.72;;;4.51;100.00
46347;BME280;32057;47.830;19.046;2024-03-08T02:00:48;100569.38;;;4.56;100.00
46347;BME280;32057;47.830;19.046;2024-03-08T02:03:17;100573.78;;;4.58;100.00
46347;BME280;32057;47.830;19.046;2024-03-08T02:05:43;100570.41;;;4.59;100.00
46347;BME280;32057;47.830;19.046;2024-03-08T02:08:11;100565.53;;;4.66;100.00
46347;BME280;32057;47.830;19.046;2024-03-08T02:10:40;100569.88;;;4.67;100.00
46347;BME280;32057;47.830;19.046;2024-03-08T02:13:07;100567.16;;;4.64;100.00
46347;BME280;32057;47.830;19.046;2024-03-08T02:18:17;100566.88;;;4.57;100.00
46347;BME280;32057;47.830;19.046;2024-03-08T02:20:43;100564.97;;;4.53;100.00
46347;BME280;32057;47.830;19.046;2024-03-08T02:23:08;100565.91;;;4.55;100.00
46347;BME280;32057;47.830;19.046;2024-03-08T02:25:34;100572.38;;;4.47;100.00
46347;BME280;32057;47.830;19.046;2024-03-08T02:28:00;100569.94;;;4.50;100.00
46347;BME280;32057;47.830;19.046;2024-03-08T02:30:26;100562.72;;;4.43;100.00
46347;BME280;32057;47.830;19.046;2024-03-08T02:32:55;100572.97;;;4.42;100.00
46347;BME280;32057;47.830;19.046;2024-03-08T02:35:20;100572.22;;;4.44;100.00
46347;BME280;32057;47.830;19.046;2024-03-08T02:37:46;100567.38;;;4.50;100.00
46347;BME280;32057;47.830;19.046;2024-03-08T02:40:13;100572.03;;;4.57;100.00
46347;BME280;32057;47.830;19.046;2024-03-08T02:42:38;100564.34;;;4.59;100.00
46347;BME280;32057;47.830;19.046;2024-03-08T02:45:04;100555.00;;;4.61;100.00
46347;BME280;32057;47.830;19.046;2024-03-08T02:47:31;100565.38;;;4.63;100.00
46347;BME280;32057;47.830;19.046;2024-03-08T02:49:56;100569.88;;;4.67;100.00
46347;BME280;32057;47.830;19.046;2024-03-08T02:52:21;100575.84;;;4.66;100.00
46347;BME280;32057;47.830;19.046;2024-03-08T02:54:48;100568.25;;;4.69;100.00
46347;BME280;32057;47.830;19.046;2024-03-08T02:57:13;100575.97;;;4.69;100.00
46347;BME280;32057;47.830;19.046;2024-03-08T02:59:39;100574.31;;;4.69;100.00
46347;BME280;32057;47.830;19.046;2024-03-08T03:02:05;100572.59;;;4.70;100.00
46347;BME280;32057;47.830;19.046;2024-03-08T03:04:32;100573.41;;;4.69;100.00
46347;BME280;32057;47.830;19.046;2024-03-08T03:06:58;100580.25;;;4.68;100.00
46347;BME280;32057;47.830;19.046;2024-03-08T03:09:23;100576.66;;;4.65;100.00
46347;BME280;32057;47.830;19.046;2024-03-08T03:11:55;100575.09;;;4.68;100.00
46347;BME280;32057;47.830;19.046;2024-03-08T03:14:24;100573.66;;;4.73;100.00
46347;BME280;32057;47.830;19.046;2024-03-08T03:16:49;100572.03;;;4.57;100.00
46347;BME280;32057;47.830;19.046;2024-03-08T03:19:15;100577.19;;;4.57;100.00
46347;BME280;32057;47.830;19.046;2024-03-08T03:21:40;100574.44;;;4.54;100.00
46347;BME280;32057;47.830;19.046;2024-03-08T03:24:08;100571.88;;;4.54;100.00
46347;BME280;32057;47.830;19.046;2024-03-08T03:26:38;100575.69;;;4.45;100.00
46347;BME280;32057;47.830;19.046;2024-03-08T03:29:07;100576.63;;;4.47;100.00
46347;BME280;32057;47.830;19.046;2024-03-08T03:31:34;100576.72;;;4.48;100.00
46347;BME280;32057;47.830;19.046;2024-03-08T03:33:59;100580.41;;;4.53;100.00
46347;BME280;32057;47.830;19.046;2024-03-08T03:36:27;100579.88;;;4.61;100.00
46347;BME280;32057;47.830;19.046;2024-03-08T03:38:53;100580.34;;;4.70;100.00
46347;BME280;32057;47.830;19.046;2024-03-08T03:41:30;100581.50;;;4.76;100.00
46347;BME280;32057;47.830;19.046;2024-03-08T03:43:55;100583.63;;;4.85;100.00
46347;BME280;32057;47.830;19.046;2024-03-08T03:46:20;100585.56;;;4.89;100.00
46347;BME280;32057;47.830;19.046;2024-03-08T03:48:46;100576.84;;;4.87;100.00
46347;BME280;32057;47.830;19.046;2024-03-08T03:51:11;100582.25;;;4.92;100.00
46347;BME280;32057;47.830;19.046;2024-03-08T03:53:37;100583.28;;;4.95;100.00
46347;BME280;32057;47.830;19.046;2024-03-08T03:56:03;100575.53;;;4.95;100.00
46347;BME280;32057;47.830;19.046;2024-03-08T03:58:32;100581.66;;;4.97;100.00
46347;BME280;32057;47.830;19.046;2024-03-08T04:00:57;100579.19;;;5.01;100.00
46347;BME280;32057;47.830;19.046;2024-03-08T04:03:23;100587.88;;;5.03;100.00
46347;BME280;32057;47.830;19.046;2024-03-08T04:05:48;100576.69;;;5.02;100.00
46347;BME280;32057;47.830;19.046;2024-03-08T04:08:14;100575.81;;;5.02;100.00
46347;BME280;32057;47.830;19.046;2024-03-08T04:10:40;100575.81;;;5.02;100.00
46347;BME280;32057;47.830;19.046;2024-03-08T04:13:07;100579.13;;;4.99;100.00
46347;BME280;32057;47.830;19.046;2024-03-08T04:15:34;100575.81;;;5.02;100.00
46347;BME280;32057;47.830;19.046;2024-03-08T04:18:00;100574.03;;;5.01;100.00
46347;BME280;32057;47.830;19.046;2024-03-08T04:20:25;100583.47;;;5.00;100.00
46347;BME280;32057;47.830;19.046;2024-03-08T04:22:51;100584.22;;;4.97;100.00
46347;BME280;32057;47.830;19.046;2024-03-08T04:25:16;100577.22;;;4.95;100.00
46347;BME280;32057;47.830;19.046;2024-03-08T04:27:41;100581.28;;;4.90;100.00
46347;BME280;32057;47.830;19.046;2024-03-08T04:30:07;100576.25;;;4.93;100.00
46347;BME280;32057;47.830;19.046;2024-03-08T04:32:33;100579.66;;;4.92;100.00
46347;BME280;32057;47.830;19.046;2024-03-08T04:34:59;100573.63;;;4.91;100.00
46347;BME280;32057;47.830;19.046;2024-03-08T04:37:26;100578.13;;;4.95;100.00
46347;BME280;32057;47.830;19.046;2024-03-08T04:39:51;100582.59;;;4.99;100.00
46347;BME280;32057;47.830;19.046;2024-03-08T04:42:17;100587.88;;;5.03;100.00
46347;BME280;32057;47.830;19.046;2024-03-08T04:44:43;100593.34;;;5.09;100.00
46347;BME280;32057;47.830;19.046;2024-03-08T04:47:08;100589.88;;;5.08;100.00
46347;BME280;32057;47.830;19.046;2024-03-08T04:49:35;100595.13;;;5.10;100.00
46347;BME280;32057;47.830;19.046;2024-03-08T04:52:04;100596.59;;;5.05;100.00
46347;BME280;32057;47.830;19.046;2024-03-08T04:54:30;100589.78;;;5.07;100.00
46347;BME280;32057;47.830;19.046;2024-03-08T04:56:55;100590.63;;;5.06;100.00
46347;BME280;32057;47.830;19.046;2024-03-08T04:59:20;100595.53;;;5.01;100.00
46347;BME280;32057;47.830;19.046;2024-03-08T05:01:46;100593.03;;;5.03;100.00
46347;BME280;32057;47.830;19.046;2024-03-08T05:04:12;100597.47;;;5.05;100.00
46347;BME280;32057;47.830;19.046;2024-03-08T05:06:38;100594.66;;;5.01;100.00
46347;BME280;32057;47.830;19.046;2024-03-08T05:09:03;100599.09;;;5.03;100.00
46347;BME280;32057;47.830;19.046;2024-03-08T05:11:40;100599.03;;;5.02;100.00
46347;BME280;32057;47.830;19.046;2024-03-08T05:14:05;100596.38;;;5.00;100.00
46347;BME280;32057;47.830;19.046;2024-03-08T05:16:30;100599.03;;;5.02;100.00
46347;BME280;32057;47.830;19.046;2024-03-08T05:18:56;100601.47;;;4.98;100.00
46347;BME280;32057;47.830;19.046;2024-03-08T05:21:22;100595.53;;;5.01;100.00
46347;BME280;32057;47.830;19.046;2024-03-08T05:23:48;100598.38;;;5.06;100.00
46347;BME280;32057;47.830;19.046;2024-03-08T05:26:15;100599.03;;;5.02;100.00
46347;BME280;32057;47.830;19.046;2024-03-08T05:28:41;100606.91;;;5.05;100.00
46347;BME280;32057;47.830;19.046;2024-03-08T05:31:06;100605.28;;;5.07;100.00
46347;BME280;32057;47.830;19.046;2024-03-08T05:33:32;100604.41;;;5.06;100.00
46347;BME280;32057;47.830;19.046;2024-03-08T05:35:59;100601.06;;;5.09;100.00
46347;BME280;32057;47.830;19.046;2024-03-08T05:38:25;100616.41;;;5.06;100.00
46347;BME280;32057;47.830;19.046;2024-03-08T05:40:51;100615.47;;;5.04;100.00
46347;BME280;32057;47.830;19.046;2024-03-08T05:43:16;100613.16;;;5.10;100.00
46347;BME280;32057;47.830;19.046;2024-03-08T05:45:45;100612.34;;;5.11;100.00
46347;BME280;32057;47.830;19.046;2024-03-08T05:48:10;100615.88;;;5.13;100.00
46347;BME280;32057;47.830;19.046;2024-03-08T05:50:38;100618.44;;;5.13;100.00
46347;BME280;32057;47.830;19.046;2024-03-08T05:53:04;100622.94;;;5.17;100.00
46347;BME280;32057;47.830;19.046;2024-03-08T05:55:32;100623.31;;;5.25;100.00
46347;BME280;32057;47.830;19.046;2024-03-08T05:58:03;100630.09;;;5.23;100.00
46347;BME280;32057;47.830;19.046;2024-03-08T06:00:28;100628.38;;;5.23;100.00
46347;BME280;32057;47.830;19.046;2024-03-08T06:02:53;100635.34;;;5.24;100.00
46347;BME280;32057;47.830;19.046;2024-03-08T06:05:19;100631.13;;;5.26;100.00
46347;BME280;32057;47.830;19.046;2024-03-08T06:07:44;100628.53;;;5.26;100.00
46347;BME280;32057;47.830;19.046;2024-03-08T06:10:10;100631.94;;;5.25;100.00
46347;BME280;32057;47.830;19.046;2024-03-08T06:12:37;100633.53;;;5.23;100.00
46347;BME280;32057;47.830;19.046;2024-03-08T06:15:07;100640.94;;;5.15;100.00
46347;BME280;32057;47.830;19.046;2024-03-08T06:17:34;100630.00;;;5.21;100.00
46347;BME280;32057;47.830;19.046;2024-03-08T06:20:00;100633.88;;;5.29;100.00
46347;BME280;32057;47.830;19.046;2024-03-08T06:22:25;100636.66;;;5.34;100.00
46347;BME280;32057;47.830;19.046;2024-03-08T06:24:50;100639.31;;;5.35;100.00
46347;BME280;32057;47.830;19.046;2024-03-08T06:27:16;100638.41;;;5.35;100.00
46347;BME280;32057;47.830;19.046;2024-03-08T06:29:42;100647.16;;;5.38;100.00
46347;BME280;32057;47.830;19.046;2024-03-08T06:32:07;100648.03;;;5.39;100.00
46347;BME280;32057;47.830;19.046;2024-03-08T06:34:33;100648.13;;;5.41;100.00
46347;BME280;32057;47.830;19.046;2024-03-08T06:36:59;100649.06;;;5.43;100.00
46347;BME280;32057;47.830;19.046;2024-03-08T06:39:27;100658.59;;;5.44;100.00
46347;BME280;32057;47.830;19.046;2024-03-08T06:41:54;100653.56;;;5.47;100.00
46347;BME280;32057;47.830;19.046;2024-03-08T06:44:19;100655.63;;;5.54;100.00
46347;BME280;32057;47.830;19.046;2024-03-08T06:46:47;100653.13;;;5.55;100.00
46347;BME280;32057;47.830;19.046;2024-03-08T06:49:13;100661.94;;;5.61;100.00
46347;BME280;32057;47.830;19.046;2024-03-08T06:51:38;100650.91;;;5.63;100.00
46347;BME280;32057;47.830;19.046;2024-03-08T06:54:06;100666.38;;;5.63;100.00
46347;BME280;32057;47.830;19.046;2024-03-08T06:56:34;100662.09;;;5.64;100.00
46347;BME280;32057;47.830;19.046;2024-03-08T06:58:59;100656.19;;;5.66;100.00
46347;BME280;32057;47.830;19.046;2024-03-08T07:01:25;100659.59;;;5.65;100.00
46347;BME280;32057;47.830;19.046;2024-03-08T07:03:50;100667.34;;;5.65;100.00
46347;BME280;32057;47.830;19.046;2024-03-08T07:06:18;100665.56;;;5.64;100.00
46347;BME280;32057;47.830;19.046;2024-03-08T07:08:44;100660.53;;;5.67;100.00
46347;BME280;32057;47.830;19.046;2024-03-08T07:11:11;100661.41;;;5.68;100.00
46347;BME280;32057;47.830;19.046;2024-03-08T07:13:37;100666.38;;;5.63;100.00
46347;BME280;32057;47.830;19.046;2024-03-08T07:16:04;100658.56;;;5.62;100.00
46347;BME280;32057;47.830;19.046;2024-03-08T07:18:30;100667.38;;;5.67;100.00
46347;BME280;32057;47.830;19.046;2024-03-08T07:20:56;100657.66;;;5.61;100.00
46347;BME280;32057;47.830;19.046;2024-03-08T07:23:22;100662.03;;;5.62;100.00
46347;BME280;32057;47.830;19.046;2024-03-08T07:26:06;100663.44;;;5.55;100.00
46347;BME280;32057;47.830;19.046;2024-03-08T07:28:31;100664.44;;;5.59;100.00
46347;BME280;32057;47.830;19.046;2024-03-08T07:31:00;100660.91;;;5.57;100.00
46347;BME280;32057;47.830;19.046;2024-03-08T07:33:55;100664.31;;;5.56;100.00
46347;BME280;32057;47.830;19.046;2024-03-08T07:36:20;100669.59;;;5.59;100.00
46347;BME280;32057;47.830;19.046;2024-03-08T07:38:47;100663.84;;;5.65;100.00
46347;BME280;32057;47.830;19.046;2024-03-08T07:41:13;100661.22;;;5.63;100.00
46347;BME280;32057;47.830;19.046;2024-03-08T07:43:38;100666.50;;;5.66;100.00
46347;BME280;32057;47.830;19.046;2024-03-08T07:46:03;100670.19;;;5.71;100.00
46347;BME280;32057;47.830;19.046;2024-03-08T07:48:29;100673.22;;;5.63;100.00
46347;BME280;32057;47.830;19.046;2024-03-08T07:50:56;100678.38;;;5.63;100.00
46347;BME280;32057;47.830;19.046;2024-03-08T07:53:21;100678.47;;;5.64;100.00
46347;BME280;32057;47.830;19.046;2024-03-08T07:55:46;100674.78;;;5.59;100.00
46347;BME280;32057;47.830;19.046;2024-03-08T07:58:11;100677.44;;;5.61;100.00
46347;BME280;32057;47.830;19.046;2024-03-08T08:00:38;100679.22;;;5.62;100.00
46347;BME280;32057;47.830;19.046;2024-03-08T08:03:04;100679.34;;;5.65;100.00
46347;BME280;32057;47.830;19.046;2024-03-08T08:05:30;100680.53;;;5.71;100.00
46347;BME280;32057;47.830;19.046;2024-03-08T08:08:00;100681.47;;;5.73;100.00
46347;BME280;32057;47.830;19.046;2024-03-08T08:10:28;100681.25;;;5.69;100.00
46347;BME280;32057;47.830;19.046;2024-03-08T08:12:53;100681.19;;;5.67;100.00
46347;BME280;32057;47.830;19.046;2024-03-08T08:15:19;100678.75;;;5.70;100.00
46347;BME280;32057;47.830;19.046;2024-03-08T08:17:45;100684.78;;;5.71;100.00
46347;BME280;32057;47.830;19.046;2024-03-08T08:20:11;100682.00;;;5.66;100.00
46347;BME280;32057;47.830;19.046;2024-03-08T08:22:39;100681.41;;;5.72;100.00
46347;BME280;32057;47.830;19.046;2024-03-08T08:25:05;100680.66;;;5.74;100.00
46347;BME280;32057;47.830;19.046;2024-03-08T08:27:31;100680.66;;;5.74;100.00
46347;BME280;32057;47.830;19.046;2024-03-08T08:29:56;100681.41;;;5.72;100.00
46347;BME280;32057;47.830;19.046;2024-03-08T08:32:22;100673.72;;;5.73;100.00
46347;BME280;32057;47.830;19.046;2024-03-08T08:34:47;100676.44;;;5.76;100.00
46347;BME280;32057;47.830;19.046;2024-03-08T08:37:13;100676.34;;;5.75;100.00
46347;BME280;32057;47.830;19.046;2024-03-08T08:39:38;100674.69;;;5.75;100.00
46347;BME280;32057;47.830;19.046;2024-03-08T08:42:04;100676.16;;;5.70;100.00
46347;BME280;32057;47.830;19.046;2024-03-08T08:44:29;100671.94;;;5.72;100.00
46347;BME280;32057;47.830;19.046;2024-03-08T08:46:56;100671.81;;;5.69;100.00
46347;BME280;32057;47.830;19.046;2024-03-08T08:49:22;100677.94;;;5.71;100.00
46347;BME280;32057;47.830;19.046;2024-03-08T08:51:52;100678.91;;;5.73;100.00
46347;BME280;32057;47.830;19.046;2024-03-08T08:54:18;100675.63;;;5.77;100.00
46347;BME280;32057;47.830;19.046;2024-03-08T08:56:44;100670.59;;;5.81;100.00
46347;BME280;32057;47.830;19.046;2024-03-08T08:59:10;100666.59;;;5.87;100.00
46347;BME280;32057;47.830;19.046;2024-03-08T09:01:41;100662.44;;;5.91;100.00
46347;BME280;32057;47.830;19.046;2024-03-08T09:04:07;100664.38;;;5.95;100.00
46347;BME280;32057;47.830;19.046;2024-03-08T09:06:33;100668.53;;;5.93;100.00
46347;BME280;32057;47.830;19.046;2024-03-08T09:08:58;100665.78;;;5.88;100.00
46347;BME280;32057;47.830;19.046;2024-03-08T09:11:24;100663.38;;;5.93;100.00
46347;BME280;32057;47.830;19.046;2024-03-08T09:13:50;100677.94;;;5.91;100.00
46347;BME280;32057;47.830;19.046;2024-03-08T09:16:15;100659.94;;;5.92;100.00
46347;BME280;32057;47.830;19.046;2024-03-08T09:18:41;100666.22;;;5.97;100.00
46347;BME280;32057;47.830;19.046;2024-03-08T09:21:06;100669.84;;;6.01;100.00
46347;BME280;32057;47.830;19.046;2024-03-08T09:23:35;100669.94;;;6.04;100.00
46347;BME280;32057;47.830;19.046;2024-03-08T09:26:00;100674.09;;;6.01;100.00
46347;BME280;32057;47.830;19.046;2024-03-08T09:28:26;100671.44;;;5.99;100.00
46347;BME280;32057;47.830;19.046;2024-03-08T09:30:52;100674.63;;;5.93;100.00
46347;BME280;32057;47.830;19.046;2024-03-08T09:33:17;100666.16;;;5.96;100.00
46347;BME280;32057;47.830;19.046;2024-03-08T09:35:48;100672.34;;;6.00;100.00
46347;BME280;32057;47.830;19.046;2024-03-08T09:38:16;100676.59;;;5.99;100.00
46347;BME280;32057;47.830;19.046;2024-03-08T09:40:41;100668.94;;;6.01;100.00
46347;BME280;32057;47.830;19.046;2024-03-08T09:43:07;100663.16;;;6.06;100.00
46347;BME280;32057;47.830;19.046;2024-03-08T09:45:36;100662.38;;;6.09;100.00
46347;BME280;32057;47.830;19.046;2024-03-08T09:48:04;100664.94;;;6.07;100.00
46347;BME280;32057;47.830;19.046;2024-03-08T09:50:30;100659.75;;;6.07;100.00
46347;BME280;32057;47.830;19.046;2024-03-08T09:52:56;100666.69;;;6.08;100.00
46347;BME280;32057;47.830;19.046;2024-03-08T09:55:22;100664.94;;;6.07;100.00
46347;BME280;32057;47.830;19.046;2024-03-08T09:57:49;100666.00;;;6.12;100.00
46347;BME280;32057;47.830;19.046;2024-03-08T10:00:39;100670.38;;;6.13;100.00
46347;BME280;32057;47.830;19.046;2024-03-08T10:03:04;100670.63;;;6.20;100.00
46347;BME280;32057;47.830;19.046;2024-03-08T10:05:30;100662.03;;;6.21;100.00
46347;BME280;32057;47.830;19.046;2024-03-08T10:07:58;100662.03;;;6.21;100.00
46347;BME280;32057;47.830;19.046;2024-03-08T10:10:23;100669.09;;;6.25;100.00
46347;BME280;32057;47.830;19.046;2024-03-08T10:12:49;100673.47;;;6.26;100.00
46347;BME280;32057;47.830;19.046;2024-03-08T10:15:16;100676.19;;;6.29;100.00
46347;BME280;32057;47.830;19.046;2024-03-08T10:17:45;100670.13;;;6.28;100.00
46347;BME280;32057;47.830;19.046;2024-03-08T10:20:15;100678.38;;;6.20;100.00
46347;BME280;32057;47.830;19.046;2024-03-08T10:22:41;100668.84;;;6.18;100.00
46347;BME280;32057;47.830;19.046;2024-03-08T10:25:10;100679.34;;;6.22;100.00
46347;BME280;32057;47.830;19.046;2024-03-08T10:27:36;100676.75;;;6.22;100.00
46347;BME280;32057;47.830;19.046;2024-03-08T10:30:02;100674.16;;;6.22;100.00
46347;BME280;32057;47.830;19.046;2024-03-08T10:32:27;100676.81;;;6.23;100.00
46347;BME280;32057;47.830;19.046;2024-03-08T10:34:53;100685.63;;;6.28;100.00
46347;BME280;32057;47.830;19.046;2024-03-08T10:37:21;100678.06;;;6.33;100.00
46347;BME280;32057;47.830;19.046;2024-03-08T10:39:57;100683.88;;;6.27;100.00
46347;BME280;32057;47.830;19.046;2024-03-08T10:42:28;100680.13;;;6.21;100.00
46347;BME280;32057;47.830;19.046;2024-03-08T10:45:15;100680.22;;;6.22;100.00
46347;BME280;32057;47.830;19.046;2024-03-08T10:47:41;100677.97;;;6.30;100.00
46347;BME280;32057;47.830;19.046;2024-03-08T10:50:18;100676.19;;;6.29;100.00
46347;BME280;32057;47.830;19.046;2024-03-08T10:52:50;100668.66;;;6.33;100.00
46347;BME280;32057;47.830;19.046;2024-03-08T10:55:18;100673.19;;;6.39;100.00
46347;BME280;32057;47.830;19.046;2024-03-08T10:57:45;100673.19;;;6.39;100.00
46347;BME280;32057;47.830;19.046;2024-03-08T11:00:12;100675.78;;;6.39;100.00
46347;BME280;32057;47.830;19.046;2024-03-08T11:02:38;100676.72;;;6.41;100.00
46347;BME280;32057;47.830;19.046;2024-03-08T11:05:04;100679.84;;;6.34;100.00
46347;BME280;32057;47.830;19.046;2024-03-08T11:07:34;100669.63;;;6.37;100.00
46347;BME280;32057;47.830;19.046;2024-03-08T11:10:02;100665.69;;;6.45;100.00
46347;BME280;32057;47.830;19.046;2024-03-08T11:12:36;100668.53;;;6.51;100.00
46347;BME280;32057;47.830;19.046;2024-03-08T11:15:09;100659.19;;;6.55;100.00
46347;BME280;32057;47.830;19.046;2024-03-08T11:20:09;100661.28;;;6.64;100.00
46347;BME280;32057;47.830;19.046;2024-03-08T11:22:40;100661.28;;;6.64;100.00
46347;BME280;32057;47.830;19.046;2024-03-08T11:25:08;100658.97;;;6.70;100.00
46347;BME280;32057;47.830;19.046;2024-03-08T11:27:37;100657.16;;;6.69;100.00
46347;BME280;32057;47.830;19.046;2024-03-08T11:30:05;100653.53;;;6.64;100.00
46347;BME280;32057;47.830;19.046;2024-03-08T11:32:43;100648.59;;;6.70;100.00
46347;BME280;32057;47.830;19.046;2024-03-08T11:35:20;100659.81;;;6.70;100.00
46347;BME280;32057;47.830;19.046;2024-03-08T11:37:46;100657.06;;;6.66;100.00
46347;BME280;32057;47.830;19.046;2024-03-08T11:40:13;100654.72;;;6.72;100.00
46347;BME280;32057;47.830;19.046;2024-03-08T11:42:48;100645.47;;;6.77;100.00
46347;BME280;32057;47.830;19.046;2024-03-08T11:45:18;100655.66;;;6.74;100.00
46347;BME280;32057;47.830;19.046;2024-03-08T11:47:46;100645.19;;;6.71;100.00
46347;BME280;32057;47.830;19.046;2024-03-08T11:50:15;100641.66;;;6.69;100.00
46347;BME280;32057;47.830;19.046;2024-03-08T11:52:41;100637.72;;;6.77;100.00
46347;BME280;32057;47.830;19.046;2024-03-08T11:55:08;100641.78;;;6.72;100.00
46347;BME280;32057;47.830;19.046;2024-03-08T11:57:33;100633.16;;;6.71;100.00
46347;BME280;32057;47.830;19.046;2024-03-08T11:59:59;100631.69;;;6.78;100.00
46347;BME280;32057;47.830;19.046;2024-03-08T12:02:34;100622.59;;;6.88;100.00
46347;BME280;32057;47.830;19.046;2024-03-08T12:05:06;100621.72;;;6.87;100.00
46347;BME280;32057;47.830;19.046;2024-03-08T12:07:32;100625.81;;;6.82;100.00
46347;BME280;32057;47.830;19.046;2024-03-08T12:10:19;100619.88;;;6.85;100.00
46347;BME280;32057;47.830;19.046;2024-03-08T12:12:47;100620.78;;;6.85;100.00
46347;BME280;32057;47.830;19.046;2024-03-08T12:15:15;100630.31;;;6.86;100.00
46347;BME280;32057;47.830;19.046;2024-03-08T12:17:41;100624.56;;;6.93;100.00
46347;BME280;32057;47.830;19.046;2024-03-08T12:22:43;100623.16;;;7.02;100.00
46347;BME280;32057;47.830;19.046;2024-03-08T12:25:11;100618.91;;;7.04;100.00
46347;BME280;32057;47.830;19.046;2024-03-08T12:27:41;100619.72;;;7.03;100.00
46347;BME280;32057;47.830;19.046;2024-03-08T12:30:20;100618.22;;;7.08;100.00
46347;BME280;32057;47.830;19.046;2024-03-08T12:32:48;100617.38;;;7.09;100.00
46347;BME280;32057;47.830;19.046;2024-03-08T12:35:14;100614.84;;;7.10;100.00
46347;BME280;32057;47.830;19.046;2024-03-08T12:37:39;100608.94;;;7.13;100.00
46347;BME280;32057;47.830;19.046;2024-03-08T12:40:07;100612.34;;;7.12;100.00
46347;BME280;32057;47.830;19.046;2024-03-08T12:42:34;100617.28;;;7.06;100.00
46347;BME280;32057;47.830;19.046;2024-03-08T12:45:00;100612.81;;;7.02;100.00
46347;BME280;32057;47.830;19.046;2024-03-08T12:47:26;100609.22;;;6.98;100.00